createdAt,value
2022-10-12T00:01:19.208Z,12.50
2022-10-12T00:05:29.576Z,12.60
2022-10-12T00:09:40.191Z,12.60
2022-10-12T00:13:49.650Z,12.70
2022-10-12T00:17:58.794Z,12.70
2022-10-12T00:22:07.892Z,12.70
2022-10-12T00:26:20.245Z,12.70
2022-10-12T00:30:30.908Z,12.80
2022-10-12T00:34:41.308Z,12.80
2022-10-12T00:38:53.528Z,13.00
2022-10-12T00:43:06.467Z,13.00
2022-10-12T00:47:32.666Z,13.10
2022-10-12T00:51:44.175Z,13.10
2022-10-12T00:55:57.131Z,13.10
2022-10-12T01:00:14.256Z,13.10
2022-10-12T01:04:25.406Z,13.00
2022-10-12T01:08:35.368Z,13.00
2022-10-12T01:12:46.769Z,12.90
2022-10-12T01:17:04.127Z,12.90
2022-10-12T01:21:20.269Z,12.80
2022-10-12T01:25:51.989Z,12.70
2022-10-12T01:30:24.350Z,12.50
2022-10-12T01:34:38.089Z,12.50
2022-10-12T01:38:56.070Z,12.50
2022-10-12T01:43:06.388Z,12.40
2022-10-12T01:47:17.949Z,12.30
2022-10-12T01:51:34.089Z,12.20
2022-10-12T01:55:49.128Z,12.20
2022-10-12T02:00:07.049Z,12.20
2022-10-12T02:04:27.790Z,12.20
2022-10-12T02:08:43.226Z,12.20
2022-10-12T02:12:54.810Z,12.20
2022-10-12T02:17:06.827Z,12.20
2022-10-12T02:21:20.813Z,12.20
2022-10-12T02:25:30.746Z,12.00
2022-10-12T02:29:42.390Z,12.00
2022-10-12T02:33:59.169Z,11.90
2022-10-12T02:38:16.387Z,11.90
2022-10-12T02:42:32.157Z,12.00
2022-10-12T02:46:46.749Z,12.00
2022-10-12T02:50:58.947Z,12.10
2022-10-12T02:55:10.212Z,12.10
2022-10-12T02:59:20.893Z,12.00
2022-10-12T03:03:30.327Z,11.90
2022-10-12T03:07:40.146Z,11.90
2022-10-12T03:11:51.227Z,11.80
2022-10-12T03:16:04.448Z,11.80
2022-10-12T03:20:14.333Z,11.80
2022-10-12T03:24:23.474Z,11.70
2022-10-12T03:28:35.270Z,11.80
2022-10-12T03:32:44.468Z,11.70
2022-10-12T03:36:53.649Z,11.70
2022-10-12T03:41:06.565Z,11.70
2022-10-12T03:45:17.812Z,11.60
2022-10-12T03:49:26.950Z,11.50
2022-10-12T03:53:36.169Z,11.50
2022-10-12T03:57:46.089Z,11.40
2022-10-12T04:01:56.666Z,11.30
2022-10-12T04:06:06.088Z,11.30
2022-10-12T04:10:15.263Z,11.40
2022-10-12T04:14:24.287Z,11.30
2022-10-12T04:18:36.226Z,11.40
2022-10-12T04:22:45.500Z,11.40
2022-10-12T04:26:54.608Z,11.40
2022-10-12T04:31:03.870Z,11.40
2022-10-12T04:35:14.509Z,11.40
2022-10-12T04:39:23.669Z,11.30
2022-10-12T04:43:32.808Z,11.30
2022-10-12T04:47:41.949Z,11.30
2022-10-12T04:51:52.507Z,11.20
2022-10-12T04:56:05.126Z,11.10
2022-10-12T05:00:15.107Z,11.10
2022-10-12T05:04:24.281Z,11.10
2022-10-12T05:08:34.968Z,11.10
2022-10-12T05:12:44.287Z,11.20
2022-10-12T05:16:53.527Z,11.20
2022-10-12T05:21:03.228Z,11.40
2022-10-12T05:25:14.108Z,11.40
2022-10-12T05:29:23.305Z,11.50
2022-10-12T05:33:32.348Z,11.50
2022-10-12T05:37:41.445Z,11.50
2022-10-12T05:41:54.686Z,11.40
2022-10-12T05:46:03.788Z,11.40
2022-10-12T05:50:12.907Z,11.30
2022-10-12T05:54:22.468Z,11.20
2022-10-12T05:58:33.250Z,11.10
2022-10-12T06:02:42.386Z,11.10
2022-10-12T06:06:52.727Z,11.10
2022-10-12T06:11:02.007Z,11.10
2022-10-12T06:15:15.647Z,11.20
2022-10-12T06:19:24.747Z,11.20
2022-10-12T06:23:34.048Z,11.30
2022-10-12T06:27:43.187Z,11.20
2022-10-12T06:31:54.592Z,11.30
2022-10-12T06:36:03.986Z,11.30
2022-10-12T06:40:14.308Z,11.20
2022-10-12T06:44:23.507Z,11.10
2022-10-12T06:48:34.190Z,11.20
2022-10-12T06:52:43.930Z,11.20
2022-10-12T06:56:57.898Z,11.30
2022-10-12T07:01:10.814Z,11.40
2022-10-12T07:05:22.870Z,11.50
2022-10-12T07:09:34.127Z,11.50
2022-10-12T07:13:43.547Z,11.50
2022-10-12T07:17:53.061Z,11.60
2022-10-12T07:22:03.847Z,11.60
2022-10-12T07:26:13.329Z,11.70
2022-10-12T07:30:22.692Z,11.80
2022-10-12T07:34:32.833Z,11.90
2022-10-12T07:38:45.699Z,12.10
2022-10-12T07:43:24.041Z,12.10
2022-10-12T07:47:25.189Z,12.20
2022-10-12T07:51:34.908Z,12.30
2022-10-12T07:55:46.008Z,12.30
2022-10-12T07:59:55.271Z,12.40
2022-10-12T08:04:04.932Z,12.60
2022-10-12T08:08:14.609Z,12.80
2022-10-12T08:12:26.029Z,13.00
2022-10-12T08:16:35.489Z,13.10
2022-10-12T08:20:48.015Z,13.30
2022-10-12T08:24:57.573Z,13.40
2022-10-12T08:29:09.171Z,13.50
2022-10-12T08:33:19.392Z,13.60
2022-10-12T08:37:28.792Z,13.70
2022-10-12T08:41:49.752Z,13.90
2022-10-12T08:46:05.030Z,14.00
2022-10-12T08:50:22.869Z,14.10
2022-10-12T08:54:37.189Z,14.30
2022-10-12T08:58:47.773Z,14.40
2022-10-12T09:03:11.334Z,14.40
2022-10-12T09:07:27.231Z,14.40
2022-10-12T09:11:56.308Z,14.50
2022-10-12T09:16:14.388Z,14.60
2022-10-12T09:20:30.432Z,14.70
2022-10-12T09:24:40.074Z,14.80
2022-10-12T09:28:53.119Z,15.00
2022-10-12T09:33:19.831Z,15.20
2022-10-12T09:37:34.088Z,15.30
2022-10-12T09:41:46.941Z,15.30
2022-10-12T09:45:57.486Z,15.30
2022-10-12T09:50:14.040Z,15.40
2022-10-12T09:54:28.007Z,15.40
2022-10-12T09:58:44.849Z,15.40
2022-10-12T10:02:55.354Z,15.40
2022-10-12T10:07:27.790Z,15.40
2022-10-12T10:11:38.454Z,15.50
2022-10-12T10:15:51.533Z,15.50
2022-10-12T10:20:04.592Z,15.60
2022-10-12T10:24:36.771Z,15.70
2022-10-12T10:28:48.915Z,15.90
2022-10-12T10:33:19.004Z,16.20
2022-10-12T10:37:28.629Z,16.50
2022-10-12T10:41:39.850Z,16.70
2022-10-12T10:45:54.312Z,16.80
2022-10-12T10:50:07.533Z,17.10
2022-10-12T10:54:18.430Z,17.20
2022-10-12T10:58:38.610Z,17.40
2022-10-12T11:02:53.989Z,17.40
2022-10-12T11:07:09.652Z,17.50
2022-10-12T11:11:23.476Z,17.40
2022-10-12T11:15:38.427Z,17.60
2022-10-12T11:19:53.810Z,17.60
2022-10-12T11:24:10.988Z,17.70
2022-10-12T11:28:20.272Z,17.90
2022-10-12T11:32:34.871Z,18.00
2022-10-12T11:37:19.138Z,18.00
2022-10-12T11:41:36.457Z,18.00
2022-10-12T11:45:50.049Z,18.00
2022-10-12T11:50:02.826Z,18.10
2022-10-12T11:54:23.287Z,18.20
2022-10-12T11:58:59.217Z,18.20
2022-10-12T12:03:19.246Z,18.30
2022-10-12T12:07:44.547Z,18.40
2022-10-12T12:12:11.047Z,18.40
2022-10-12T12:16:28.588Z,18.30
2022-10-12T12:21:02.550Z,18.20
2022-10-12T12:25:33.136Z,18.30
2022-10-12T12:29:52.826Z,18.20
2022-10-12T12:38:48.209Z,18.40
2022-10-12T12:43:22.049Z,18.40
2022-10-12T12:47:45.832Z,18.30
2022-10-12T12:51:58.390Z,18.20
2022-10-12T12:56:50.847Z,18.20
2022-10-12T13:01:19.184Z,18.30
2022-10-12T13:06:08.427Z,18.30
2022-10-12T13:10:33.589Z,18.10
2022-10-12T13:15:22.028Z,18.10
2022-10-12T13:19:36.907Z,18.10
2022-10-12T13:23:50.805Z,18.10
2022-10-12T13:28:02.629Z,17.80
2022-10-12T13:32:21.127Z,17.60
2022-10-12T13:36:31.950Z,17.60
2022-10-12T13:40:45.607Z,17.60
2022-10-12T13:44:55.067Z,17.50
2022-10-12T13:49:14.308Z,17.40
2022-10-12T13:53:23.766Z,17.50
2022-10-12T13:57:41.629Z,17.50
2022-10-12T14:01:53.273Z,17.40
2022-10-12T14:06:04.483Z,17.30
2022-10-12T14:10:20.666Z,17.20
2022-10-12T14:14:38.228Z,17.30
2022-10-12T14:18:49.627Z,17.40
2022-10-12T14:23:00.549Z,17.50
2022-10-12T14:27:10.630Z,17.50
2022-10-12T14:31:21.484Z,17.50
2022-10-12T14:35:32.310Z,17.50
2022-10-12T14:39:43.161Z,17.60
2022-10-12T14:44:10.430Z,17.60
2022-10-12T14:48:24.383Z,17.60
2022-10-12T14:52:39.807Z,17.70
2022-10-12T14:56:50.151Z,17.70
2022-10-12T15:00:59.659Z,17.70
2022-10-12T15:05:12.229Z,17.70
2022-10-12T15:09:21.345Z,17.60
2022-10-12T15:13:31.748Z,17.60
2022-10-12T15:17:41.187Z,17.60
2022-10-12T15:21:51.867Z,17.50
2022-10-12T15:26:01.230Z,17.30
2022-10-12T15:30:12.008Z,17.10
2022-10-12T15:34:21.349Z,16.80
2022-10-12T15:38:31.969Z,16.60
2022-10-12T15:42:42.866Z,16.40
2022-10-12T15:46:53.485Z,16.30
2022-10-12T15:51:02.809Z,16.20
2022-10-12T15:55:22.348Z,16.20
2022-10-12T15:59:31.507Z,16.20
2022-10-12T16:03:40.709Z,16.20
2022-10-12T16:07:50.708Z,16.30
2022-10-12T16:12:27.447Z,16.30
2022-10-12T16:16:38.506Z,16.20
2022-10-12T16:20:53.461Z,16.20
2022-10-12T16:25:04.174Z,16.00
2022-10-12T16:29:14.909Z,15.90
2022-10-12T16:33:26.607Z,15.80
2022-10-12T16:37:37.267Z,15.80
2022-10-12T16:41:46.866Z,15.70
2022-10-12T16:45:59.892Z,15.60
2022-10-12T16:50:12.365Z,15.50
2022-10-12T16:54:24.260Z,15.40
2022-10-12T16:58:33.746Z,15.30
2022-10-12T17:02:44.114Z,15.30
2022-10-12T17:06:57.510Z,15.30
2022-10-12T17:11:10.100Z,15.20
2022-10-12T17:15:20.427Z,15.20
2022-10-12T17:19:33.401Z,15.20
2022-10-12T17:23:44.392Z,15.10
2022-10-12T17:27:53.659Z,15.10
2022-10-12T17:32:03.447Z,15.00
2022-10-12T17:36:14.845Z,14.90
2022-10-12T17:40:29.629Z,14.90
2022-10-12T17:44:39.890Z,14.90
2022-10-12T17:48:50.664Z,14.80
2022-10-12T17:53:01.814Z,14.80
2022-10-12T17:57:14.580Z,14.70
2022-10-12T18:01:25.293Z,14.70
2022-10-12T18:05:54.485Z,14.70
2022-10-12T18:10:04.194Z,14.60
2022-10-12T18:14:15.710Z,14.50
2022-10-12T18:18:27.577Z,14.50
2022-10-12T18:22:37.011Z,14.50
2022-10-12T18:26:47.651Z,14.40
2022-10-12T18:30:58.416Z,14.50
2022-10-12T18:35:10.249Z,14.50
2022-10-12T18:39:20.223Z,14.50
2022-10-12T18:43:29.568Z,14.40
2022-10-12T18:47:41.066Z,14.40
2022-10-12T18:51:51.612Z,14.40
2022-10-12T20:16:51.966Z,14.60
2022-10-12T20:21:02.027Z,14.60
2022-10-12T20:25:23.306Z,14.70
2022-10-12T22:01:40.548Z,15.10
2022-10-12T22:05:50.286Z,15.20
2022-10-12T22:24:31.643Z,15.20
2022-10-12T22:28:41.738Z,15.20
2022-10-12T22:32:52.439Z,15.20
2022-10-12T22:41:53.826Z,15.40
2022-10-12T22:46:04.672Z,15.30
2022-10-12T22:50:15.872Z,15.30
2022-10-12T22:54:28.963Z,15.30
2022-10-12T22:58:40.772Z,15.30
2022-10-12T23:02:55.328Z,15.30
2022-10-12T23:07:08.542Z,15.40
2022-10-12T23:11:25.565Z,15.40
2022-10-12T23:15:45.630Z,15.30
2022-10-12T23:20:25.246Z,15.40
2022-10-12T23:25:08.288Z,15.40
2022-10-12T23:29:34.481Z,15.40
2022-10-12T23:33:49.167Z,15.40
2022-10-12T23:38:01.982Z,15.40
2022-10-12T23:42:18.784Z,15.40
2022-10-12T23:46:34.351Z,15.50
2022-10-12T23:50:48.600Z,15.50
2022-10-12T23:55:02.004Z,15.50
2022-10-12T23:59:15.188Z,15.50
